createdAt,value
2023-12-14T00:01:32.504Z,65.90
2023-12-14T00:04:00.293Z,66.20
2023-12-14T00:06:28.033Z,66.50
2023-12-14T00:08:55.656Z,65.99
2023-12-14T00:11:23.304Z,66.07
2023-12-14T00:13:50.937Z,66.32
2023-12-14T00:16:18.540Z,66.28
2023-12-14T00:18:46.221Z,66.15
2023-12-14T00:21:13.833Z,66.10
2023-12-14T00:23:41.383Z,66.03
2023-12-14T00:26:09.257Z,66.06
2023-12-14T00:28:36.892Z,65.97
2023-12-14T00:31:04.678Z,66.17
2023-12-14T00:33:32.499Z,66.23
2023-12-14T00:36:00.186Z,66.24
2023-12-14T00:38:27.795Z,66.24
2023-12-14T00:40:55.514Z,66.11
2023-12-14T00:43:23.233Z,65.79
2023-12-14T00:45:50.821Z,66.07
2023-12-14T00:48:18.412Z,65.92
2023-12-14T00:50:46.065Z,66.02
2023-12-14T00:53:13.745Z,66.04
2023-12-14T00:55:41.504Z,66.10
2023-12-14T00:58:09.095Z,65.79
2023-12-14T01:00:36.666Z,66.03
2023-12-14T01:03:04.374Z,65.86
2023-12-14T01:05:32.062Z,65.98
2023-12-14T01:07:59.754Z,65.55
2023-12-14T01:10:27.363Z,65.41
2023-12-14T01:12:54.968Z,65.51
2023-12-14T01:15:22.531Z,65.58
2023-12-14T01:17:50.158Z,65.78
2023-12-14T01:20:17.903Z,65.62
2023-12-14T01:22:45.529Z,65.23
2023-12-14T01:25:13.892Z,65.29
2023-12-14T01:27:41.528Z,65.28
2023-12-14T01:30:09.674Z,65.24
2023-12-14T01:32:37.587Z,65.44
2023-12-14T01:35:05.912Z,65.59
2023-12-14T01:37:33.511Z,65.70
2023-12-14T01:40:01.140Z,65.29
2023-12-14T01:42:28.774Z,65.12
2023-12-14T01:44:56.439Z,65.38
2023-12-14T01:47:24.009Z,65.27
2023-12-14T01:49:51.696Z,65.21
2023-12-14T01:52:19.300Z,64.98
2023-12-14T01:54:46.990Z,65.13
2023-12-14T01:57:14.656Z,64.78
2023-12-14T01:59:42.260Z,65.11
2023-12-14T02:02:09.905Z,65.00
2023-12-14T02:04:38.654Z,65.24
2023-12-14T02:07:09.241Z,64.91
2023-12-14T02:09:36.816Z,65.25
2023-12-14T02:12:04.765Z,65.01
2023-12-14T02:14:32.407Z,64.89
2023-12-14T02:17:00.067Z,64.94
2023-12-14T02:19:27.681Z,65.17
2023-12-14T02:21:55.237Z,65.30
2023-12-14T02:24:22.879Z,65.14
2023-12-14T02:27:02.239Z,65.06
2023-12-14T02:29:32.199Z,65.13
2023-12-14T02:32:00.098Z,65.51
2023-12-14T02:34:27.839Z,65.50
2023-12-14T02:36:55.385Z,65.35
2023-12-14T02:39:22.929Z,65.71
2023-12-14T02:41:50.509Z,65.47
2023-12-14T02:44:18.073Z,65.35
2023-12-14T02:46:45.651Z,65.78
2023-12-14T02:49:13.311Z,65.50
2023-12-14T02:51:40.884Z,65.97
2023-12-14T02:54:09.103Z,65.82
2023-12-14T02:56:36.682Z,66.20
2023-12-14T02:59:04.288Z,66.05
2023-12-14T03:01:31.935Z,65.84
2023-12-14T03:03:59.575Z,66.09
2023-12-14T03:06:27.436Z,65.96
2023-12-14T03:08:54.976Z,66.19
2023-12-14T03:11:25.976Z,65.98
2023-12-14T03:13:53.597Z,65.87
2023-12-14T03:16:21.662Z,66.14
2023-12-14T03:18:53.498Z,66.06
2023-12-14T03:21:21.802Z,65.80
2023-12-14T03:23:49.584Z,66.05
2023-12-14T03:26:17.429Z,66.30
2023-12-14T03:28:45.034Z,66.04
2023-12-14T03:31:14.033Z,66.13
2023-12-14T03:33:43.624Z,66.10
2023-12-14T03:36:11.340Z,66.50
2023-12-14T03:38:38.975Z,66.32
2023-12-14T03:41:06.716Z,66.21
2023-12-14T03:43:34.323Z,66.20
2023-12-14T03:46:01.904Z,66.48
2023-12-14T03:48:29.639Z,66.28
2023-12-14T03:50:57.271Z,66.49
2023-12-14T03:53:24.819Z,66.10
2023-12-14T03:55:52.395Z,66.29
2023-12-14T03:58:20.087Z,66.25
2023-12-14T04:00:47.750Z,66.21
2023-12-14T04:03:15.351Z,65.99
2023-12-14T04:05:44.351Z,66.31
2023-12-14T04:08:12.344Z,66.14
2023-12-14T04:10:39.976Z,66.52
2023-12-14T04:13:07.648Z,66.08
2023-12-14T04:15:35.207Z,66.37
2023-12-14T04:18:03.420Z,66.11
2023-12-14T04:20:31.022Z,66.37
2023-12-14T04:22:58.598Z,66.21
2023-12-14T04:25:26.138Z,66.42
2023-12-14T04:27:53.687Z,66.43
2023-12-14T04:30:21.363Z,66.46
2023-12-14T04:32:49.080Z,66.16
2023-12-14T04:35:16.806Z,66.33
2023-12-14T04:37:44.518Z,66.47
2023-12-14T04:40:12.817Z,66.51
2023-12-14T04:42:40.363Z,66.21
2023-12-14T04:45:10.198Z,66.49
2023-12-14T04:47:37.915Z,66.16
2023-12-14T04:50:06.277Z,66.26
2023-12-14T04:52:34.276Z,66.32
2023-12-14T04:55:02.091Z,66.66
2023-12-14T04:57:29.650Z,66.50
2023-12-14T04:59:57.201Z,66.39
2023-12-14T05:02:25.056Z,66.33
2023-12-14T05:04:52.646Z,66.46
2023-12-14T05:07:20.270Z,66.53
2023-12-14T05:09:47.819Z,66.84
2023-12-14T05:12:15.393Z,66.74
2023-12-14T05:14:42.994Z,66.53
2023-12-14T05:17:10.645Z,67.03
2023-12-14T05:19:38.276Z,66.97
2023-12-14T05:22:05.905Z,66.86
2023-12-14T05:24:33.447Z,66.91
2023-12-14T05:27:01.000Z,66.69
2023-12-14T05:29:28.783Z,66.87
2023-12-14T05:31:56.370Z,67.16
2023-12-14T05:34:23.927Z,67.17
2023-12-14T05:36:51.485Z,67.27
2023-12-14T05:39:19.023Z,67.25
2023-12-14T05:41:46.582Z,67.11
2023-12-14T05:44:14.599Z,67.16
2023-12-14T05:46:42.420Z,67.49
2023-12-14T05:49:10.100Z,67.58
2023-12-14T05:51:38.979Z,67.33
2023-12-14T05:54:06.571Z,67.83
2023-12-14T05:56:35.148Z,67.61
2023-12-14T05:59:04.004Z,67.23
2023-12-14T06:01:32.198Z,67.16
2023-12-14T06:03:59.892Z,67.32
2023-12-14T06:06:27.496Z,67.54
2023-12-14T06:08:55.721Z,67.60
2023-12-14T06:11:23.601Z,67.48
2023-12-14T06:13:51.330Z,67.58
2023-12-14T06:16:19.004Z,67.66
2023-12-14T06:18:46.839Z,67.63
2023-12-14T06:21:14.753Z,67.73
2023-12-14T06:23:42.362Z,67.41
2023-12-14T06:26:09.990Z,67.83
2023-12-14T06:28:37.684Z,67.64
2023-12-14T06:31:05.504Z,67.81
2023-12-14T06:33:33.208Z,67.83
2023-12-14T06:36:05.927Z,67.74
2023-12-14T06:38:33.523Z,67.98
2023-12-14T06:41:03.342Z,68.02
2023-12-14T06:43:31.397Z,67.67
2023-12-14T06:45:58.939Z,67.87
2023-12-14T06:48:26.596Z,67.91
2023-12-14T06:50:56.013Z,68.05
2023-12-14T06:53:23.796Z,68.51
2023-12-14T06:55:51.392Z,68.08
2023-12-14T06:58:19.173Z,68.46
2023-12-14T07:00:46.781Z,68.28
2023-12-14T07:03:14.691Z,68.29
2023-12-14T07:05:44.155Z,68.29
2023-12-14T07:08:11.745Z,68.26
2023-12-14T07:10:39.397Z,68.20
2023-12-14T07:13:06.969Z,68.05
2023-12-14T07:15:35.062Z,68.14
2023-12-14T07:18:02.833Z,68.20
2023-12-14T07:20:30.549Z,67.85
2023-12-14T07:22:58.196Z,67.68
2023-12-14T07:25:25.749Z,68.02
2023-12-14T07:27:53.738Z,68.14
2023-12-14T07:30:21.360Z,68.19
2023-12-14T07:32:49.024Z,68.10
2023-12-14T07:35:16.672Z,67.97
2023-12-14T07:37:44.468Z,67.90
2023-12-14T07:40:12.436Z,67.66
2023-12-14T07:42:40.040Z,67.60
2023-12-14T07:45:10.481Z,67.85
2023-12-14T07:47:38.252Z,67.94
2023-12-14T07:50:06.775Z,68.24
2023-12-14T07:52:36.220Z,68.21
2023-12-14T07:55:04.951Z,68.41
2023-12-14T07:57:32.625Z,68.38
2023-12-14T08:00:01.230Z,68.42
2023-12-14T08:02:28.815Z,68.02
2023-12-14T08:04:56.515Z,68.29
2023-12-14T08:07:24.171Z,68.47
2023-12-14T08:09:51.711Z,68.17
2023-12-14T08:12:19.284Z,68.84
2023-12-14T08:14:46.844Z,68.73
2023-12-14T08:17:14.456Z,68.79
2023-12-14T08:19:42.124Z,68.97
2023-12-14T08:22:12.989Z,69.05
2023-12-14T08:24:41.370Z,68.96
2023-12-14T08:27:08.981Z,68.80
2023-12-14T08:29:36.615Z,69.14
2023-12-14T08:32:04.696Z,68.72
2023-12-14T08:34:32.638Z,68.61
2023-12-14T08:37:02.807Z,69.10
2023-12-14T08:39:30.357Z,69.07
2023-12-14T08:41:57.983Z,69.08
2023-12-14T08:44:25.577Z,68.67
2023-12-14T08:46:53.269Z,69.02
2023-12-14T08:49:20.882Z,68.76
2023-12-14T08:51:48.429Z,68.51
2023-12-14T08:54:15.987Z,68.43
2023-12-14T08:56:43.763Z,68.41
2023-12-14T08:59:11.414Z,68.33
2023-12-14T09:01:39.961Z,68.46
2023-12-14T09:04:07.729Z,68.46
2023-12-14T09:06:35.447Z,68.40
2023-12-14T09:09:03.728Z,68.50
2023-12-14T09:11:31.512Z,68.56
2023-12-14T09:13:59.117Z,68.64
2023-12-14T09:16:26.727Z,68.74
2023-12-14T09:18:54.362Z,68.81
2023-12-14T09:21:27.483Z,68.83
2023-12-14T09:24:01.119Z,68.60
2023-12-14T09:26:28.743Z,69.23
2023-12-14T09:28:56.398Z,69.37
2023-12-14T09:31:23.999Z,69.43
2023-12-14T09:33:51.821Z,69.12
2023-12-14T09:36:19.612Z,69.23
2023-12-14T09:38:48.562Z,69.05
2023-12-14T09:41:16.190Z,69.27
2023-12-14T09:43:45.023Z,68.79
2023-12-14T09:46:13.868Z,68.99
2023-12-14T09:48:41.798Z,69.12
2023-12-14T09:51:10.533Z,69.13
2023-12-14T09:53:38.099Z,68.87
2023-12-14T09:56:06.564Z,69.18
2023-12-14T09:58:34.664Z,69.18
2023-12-14T10:01:05.241Z,69.14
2023-12-14T10:03:33.889Z,69.37
2023-12-14T10:06:03.401Z,69.46
2023-12-14T10:08:31.308Z,69.64
2023-12-14T10:10:59.129Z,69.87
2023-12-14T10:13:40.540Z,69.77
2023-12-14T10:16:08.622Z,69.76
2023-12-14T10:18:36.944Z,69.86
2023-12-14T10:21:07.384Z,69.76
2023-12-14T10:23:36.177Z,69.73
2023-12-14T10:26:05.961Z,69.73
2023-12-14T10:28:33.932Z,69.93
2023-12-14T10:31:01.795Z,69.35
2023-12-14T10:33:29.456Z,69.60
2023-12-14T10:35:57.894Z,69.30
2023-12-14T10:38:28.653Z,69.75
2023-12-14T10:40:58.961Z,69.73
2023-12-14T10:43:45.220Z,69.63
2023-12-14T10:46:15.807Z,69.45
2023-12-14T10:48:46.315Z,69.29
2023-12-14T10:51:15.692Z,68.96
2023-12-14T10:53:50.221Z,69.01
2023-12-14T10:56:19.252Z,69.11
2023-12-14T10:59:01.449Z,68.84
2023-12-14T11:01:30.835Z,68.88
2023-12-14T11:04:00.798Z,69.41
2023-12-14T11:06:33.288Z,68.99
2023-12-14T11:09:11.609Z,69.37
2023-12-14T11:11:45.118Z,68.89
2023-12-14T11:14:14.513Z,69.04
2023-12-14T11:16:47.424Z,68.88
2023-12-14T11:19:26.629Z,68.77
2023-12-14T11:22:16.042Z,67.99
2023-12-14T11:24:51.514Z,67.75
2023-12-14T11:27:27.365Z,67.71
2023-12-14T11:29:55.589Z,68.08
2023-12-14T11:32:23.773Z,68.02
2023-12-14T11:34:51.526Z,68.21
2023-12-14T11:37:19.525Z,69.23
2023-12-14T11:39:50.747Z,68.94
2023-12-14T11:42:19.778Z,69.13
2023-12-14T11:44:47.711Z,68.69
2023-12-14T11:47:15.580Z,68.46
2023-12-14T11:49:43.460Z,68.40
2023-12-14T11:52:11.472Z,67.87
2023-12-14T11:54:39.117Z,68.24
2023-12-14T11:57:09.392Z,68.43
2023-12-14T11:59:37.994Z,68.64
2023-12-14T12:02:05.594Z,68.89
2023-12-14T12:04:33.290Z,68.86
2023-12-14T12:07:10.278Z,68.64
2023-12-14T12:09:43.751Z,68.60
2023-12-14T12:12:13.373Z,68.35
2023-12-14T12:14:42.955Z,68.81
2023-12-14T12:17:11.041Z,68.49
2023-12-14T12:19:39.294Z,68.41
2023-12-14T12:22:07.039Z,68.54
2023-12-14T12:24:35.380Z,68.44
2023-12-14T12:27:03.198Z,68.05
2023-12-14T12:29:31.446Z,67.50
2023-12-14T12:31:59.389Z,67.29
2023-12-14T12:34:27.323Z,67.18
2023-12-14T12:36:56.073Z,66.92
2023-12-14T12:39:23.703Z,67.41
2023-12-14T12:41:51.710Z,66.98
2023-12-14T12:44:19.572Z,67.04
2023-12-14T12:46:54.925Z,66.71
2023-12-14T12:49:29.802Z,66.40
2023-12-14T12:51:57.426Z,66.27
2023-12-14T12:54:25.084Z,66.36
2023-12-14T12:56:52.658Z,66.73
2023-12-14T12:59:20.300Z,66.68
2023-12-14T13:01:48.202Z,66.60
2023-12-14T13:04:23.079Z,66.88
2023-12-14T13:06:51.635Z,66.83
2023-12-14T13:09:22.705Z,66.37
2023-12-14T13:11:51.514Z,66.45
2023-12-14T13:14:19.315Z,66.80
2023-12-14T13:16:48.794Z,67.03
2023-12-14T13:19:16.791Z,67.85
2023-12-14T13:21:44.385Z,67.28
2023-12-14T13:24:12.033Z,67.59
2023-12-14T13:26:40.455Z,67.85
2023-12-14T13:29:08.226Z,67.44
2023-12-14T13:31:36.058Z,67.44
2023-12-14T13:34:04.631Z,67.54
2023-12-14T13:36:32.373Z,67.52
2023-12-14T13:39:00.386Z,67.72
2023-12-14T13:41:28.001Z,67.54
2023-12-14T13:43:55.590Z,67.42
2023-12-14T13:46:24.886Z,67.34
2023-12-14T13:48:54.226Z,67.10
2023-12-14T13:51:22.072Z,67.11
2023-12-14T13:53:49.692Z,67.23
2023-12-14T13:56:17.411Z,67.09
2023-12-14T13:58:45.480Z,67.55
2023-12-14T14:01:13.101Z,67.25
2023-12-14T14:03:43.231Z,67.41
2023-12-14T14:06:10.982Z,67.76
2023-12-14T14:08:38.601Z,68.01
2023-12-14T14:11:08.609Z,67.96
2023-12-14T14:13:37.581Z,68.30
2023-12-14T14:16:06.355Z,68.30
2023-12-14T14:18:34.277Z,68.05
2023-12-14T14:21:02.511Z,68.08
2023-12-14T14:23:32.264Z,67.99
2023-12-14T14:26:00.444Z,68.23
2023-12-14T14:28:28.416Z,68.06
2023-12-14T14:30:56.583Z,68.17
2023-12-14T14:33:24.593Z,68.25
2023-12-14T14:35:52.361Z,68.54
2023-12-14T14:38:20.172Z,68.21
2023-12-14T14:40:47.954Z,68.19
2023-12-14T14:43:15.715Z,68.52
2023-12-14T14:45:45.030Z,68.46
2023-12-14T14:48:12.705Z,68.16
2023-12-14T14:50:40.385Z,68.20
2023-12-14T14:53:08.148Z,68.10
2023-12-14T14:55:35.932Z,68.37
2023-12-14T14:58:03.716Z,68.26
2023-12-14T15:00:33.422Z,68.05
2023-12-14T15:03:04.340Z,68.32
2023-12-14T15:05:32.955Z,68.44
2023-12-14T15:08:00.695Z,68.17
2023-12-14T15:10:28.315Z,68.73
2023-12-14T15:12:55.871Z,68.57
2023-12-14T15:15:23.466Z,68.85
2023-12-14T15:17:51.010Z,68.55
2023-12-14T15:20:19.107Z,68.33
2023-12-14T15:22:46.751Z,68.65
2023-12-14T15:25:16.541Z,68.48
2023-12-14T15:27:44.200Z,68.28
2023-12-14T15:30:12.861Z,68.48
2023-12-14T15:32:40.853Z,68.14
2023-12-14T15:35:09.110Z,68.07
2023-12-14T15:37:36.683Z,68.09
2023-12-14T15:40:05.597Z,68.08
2023-12-14T15:42:33.434Z,68.27
2023-12-14T15:45:01.186Z,68.63
2023-12-14T15:47:28.918Z,68.44
2023-12-14T15:49:56.627Z,68.52
2023-12-14T15:52:24.257Z,68.75
2023-12-14T15:54:51.852Z,68.76
2023-12-14T15:57:19.406Z,68.51
2023-12-14T15:59:46.979Z,68.59
2023-12-14T16:02:14.606Z,68.58
2023-12-14T16:04:42.256Z,68.62
2023-12-14T16:07:09.808Z,68.03
2023-12-14T16:09:37.446Z,68.34
2023-12-14T16:12:07.176Z,68.27
2023-12-14T16:14:34.767Z,67.91
2023-12-14T16:17:02.357Z,67.99
2023-12-14T16:19:30.044Z,68.33
2023-12-14T16:21:57.580Z,67.78
2023-12-14T16:24:36.643Z,68.13
2023-12-14T16:27:08.454Z,67.79
2023-12-14T16:29:37.997Z,68.12
2023-12-14T16:32:07.469Z,67.99
2023-12-14T16:34:35.864Z,68.04
2023-12-14T16:37:04.599Z,68.23
2023-12-14T16:39:33.100Z,68.33
2023-12-14T16:42:00.690Z,68.52
2023-12-14T16:44:28.300Z,68.49
2023-12-14T16:46:56.058Z,68.37
2023-12-14T16:49:23.646Z,67.89
2023-12-14T16:51:51.210Z,67.86
2023-12-14T16:54:18.786Z,67.86
2023-12-14T16:56:46.371Z,68.26
2023-12-14T16:59:15.620Z,67.89
2023-12-14T17:01:43.626Z,67.75
2023-12-14T17:04:11.214Z,67.82
2023-12-14T17:06:38.772Z,67.75
2023-12-14T17:09:06.381Z,67.58
2023-12-14T17:11:33.982Z,67.91
2023-12-14T17:14:01.585Z,67.65
2023-12-14T17:16:29.256Z,67.55
2023-12-14T17:18:56.833Z,67.47
2023-12-14T17:21:27.544Z,67.80
2023-12-14T17:23:56.687Z,67.52
2023-12-14T17:26:26.907Z,67.53
2023-12-14T17:28:57.149Z,67.68
2023-12-14T17:31:26.308Z,67.34
2023-12-14T17:33:54.341Z,67.57
2023-12-14T17:36:21.981Z,67.63
2023-12-14T17:38:51.140Z,67.24
2023-12-14T17:41:18.910Z,67.38
2023-12-14T17:43:46.537Z,67.53
2023-12-14T17:46:19.299Z,67.64
2023-12-14T17:48:47.015Z,67.68
2023-12-14T17:51:14.572Z,67.57
2023-12-14T17:53:44.554Z,67.07
2023-12-14T17:56:12.426Z,67.33
2023-12-14T17:58:42.110Z,67.36
2023-12-14T18:01:09.825Z,67.50
2023-12-14T18:03:37.457Z,67.83
2023-12-14T18:06:05.629Z,67.57
2023-12-14T18:08:33.228Z,68.01
2023-12-14T18:11:00.878Z,68.14
2023-12-14T18:13:28.542Z,68.07
2023-12-14T18:15:56.192Z,68.39
2023-12-14T18:18:24.039Z,68.43
2023-12-14T18:20:51.741Z,68.27
2023-12-14T18:23:19.346Z,68.42
2023-12-14T18:25:50.047Z,68.40
2023-12-14T18:28:19.143Z,68.75
2023-12-14T18:30:47.289Z,68.47
2023-12-14T18:33:15.496Z,68.78
2023-12-14T18:35:43.139Z,68.55
2023-12-14T18:38:10.961Z,68.62
2023-12-14T18:40:38.499Z,68.57
2023-12-14T18:43:06.079Z,68.68
2023-12-14T18:45:33.983Z,68.56
2023-12-14T18:48:01.693Z,68.52
2023-12-14T18:50:29.409Z,68.74
2023-12-14T18:52:58.809Z,68.54
2023-12-14T18:55:26.685Z,68.63
2023-12-14T18:57:55.274Z,68.66
2023-12-14T19:00:22.955Z,68.67
2023-12-14T19:02:50.536Z,68.63
2023-12-14T19:05:22.039Z,68.53
2023-12-14T19:07:49.698Z,68.54
2023-12-14T19:10:20.252Z,68.66
2023-12-14T19:12:48.944Z,68.70
2023-12-14T19:15:17.013Z,68.63
2023-12-14T19:17:44.792Z,68.70
2023-12-14T19:20:13.601Z,68.63
2023-12-14T19:22:41.482Z,68.66
2023-12-14T19:25:11.680Z,68.63
2023-12-14T19:27:40.502Z,68.80
2023-12-14T19:30:13.802Z,68.78
2023-12-14T19:32:42.368Z,68.73
2023-12-14T19:35:10.163Z,68.61
2023-12-14T19:37:37.985Z,68.77
2023-12-14T19:40:06.695Z,68.71
2023-12-14T19:42:35.671Z,68.81
2023-12-14T19:45:03.944Z,68.55
2023-12-14T19:47:32.853Z,68.48
2023-12-14T19:50:01.345Z,68.20
2023-12-14T19:52:29.571Z,67.87
2023-12-14T19:54:58.610Z,67.98
2023-12-14T19:57:26.311Z,67.81
2023-12-14T19:59:53.913Z,67.60
2023-12-14T20:02:21.883Z,67.65
2023-12-14T20:04:49.507Z,67.83
2023-12-14T20:07:17.114Z,67.48
2023-12-14T20:09:54.199Z,67.63
2023-12-14T20:12:25.565Z,67.25
2023-12-14T20:14:53.126Z,67.33
2023-12-14T20:17:20.823Z,66.70
2023-12-14T20:19:48.865Z,66.49
2023-12-14T20:22:16.475Z,66.88
2023-12-14T20:24:45.623Z,66.81
2023-12-14T20:27:13.236Z,66.58
2023-12-14T20:29:40.785Z,66.21
2023-12-14T20:32:08.413Z,66.01
2023-12-14T20:34:35.996Z,65.71
2023-12-14T20:37:03.612Z,65.77
2023-12-14T20:39:31.178Z,65.81
2023-12-14T20:41:58.740Z,65.71
2023-12-14T20:44:26.367Z,65.61
2023-12-14T20:46:53.935Z,65.37
2023-12-14T20:49:23.439Z,65.38
2023-12-14T20:51:51.069Z,65.36
2023-12-14T20:54:18.635Z,65.56
2023-12-14T20:56:46.182Z,65.42
2023-12-14T20:59:14.769Z,65.91
2023-12-14T21:01:42.764Z,65.97
2023-12-14T21:04:10.374Z,65.60
2023-12-14T21:06:38.035Z,65.46
2023-12-14T21:09:06.450Z,65.45
2023-12-14T21:11:34.045Z,65.56
2023-12-14T21:14:01.687Z,65.49
2023-12-14T21:16:29.334Z,65.56
2023-12-14T21:18:57.062Z,65.51
2023-12-14T21:21:24.991Z,65.60
2023-12-14T21:23:52.595Z,65.77
2023-12-14T21:26:21.886Z,65.61
2023-12-14T21:28:49.582Z,65.88
2023-12-14T21:31:17.267Z,65.75
2023-12-14T21:33:45.052Z,65.84
2023-12-14T21:36:13.216Z,65.58
2023-12-14T21:38:40.800Z,66.04
2023-12-14T21:41:08.442Z,66.65
2023-12-14T21:43:36.019Z,66.36
2023-12-14T21:46:04.094Z,66.42
2023-12-14T21:48:31.772Z,66.97
2023-12-14T21:50:59.519Z,66.60
2023-12-14T21:53:27.246Z,66.60
2023-12-14T21:55:54.955Z,67.00
2023-12-14T21:58:22.510Z,67.07
2023-12-14T22:00:50.086Z,67.32
2023-12-14T22:03:17.973Z,67.50
2023-12-14T22:05:45.798Z,67.32
2023-12-14T22:08:13.423Z,67.67
2023-12-14T22:10:40.997Z,67.51
2023-12-14T22:13:08.549Z,67.21
2023-12-14T22:15:36.117Z,67.51
2023-12-14T22:18:03.886Z,67.26
2023-12-14T22:20:31.522Z,67.59
2023-12-14T22:22:59.127Z,67.34
2023-12-14T22:25:26.688Z,67.40
2023-12-14T22:27:54.270Z,67.13
2023-12-14T22:30:21.843Z,67.07
2023-12-14T22:32:50.192Z,67.37
2023-12-14T22:35:17.830Z,67.28
2023-12-14T22:37:45.456Z,67.26
2023-12-14T22:40:13.685Z,67.16
2023-12-14T22:42:41.277Z,67.49
2023-12-14T22:45:09.051Z,67.53
2023-12-14T22:47:36.919Z,67.46
2023-12-14T22:50:06.657Z,67.13
2023-12-14T22:52:34.508Z,67.63
2023-12-14T22:55:02.151Z,67.44
2023-12-14T22:57:31.469Z,67.39
2023-12-14T22:59:59.049Z,67.49
2023-12-14T23:02:28.094Z,67.34
2023-12-14T23:04:56.024Z,67.22
2023-12-14T23:07:23.648Z,66.96
2023-12-14T23:09:51.211Z,66.99
2023-12-14T23:12:20.638Z,67.32
2023-12-14T23:14:49.183Z,67.05
2023-12-14T23:17:16.836Z,67.48
2023-12-14T23:19:44.459Z,67.12
2023-12-14T23:22:12.040Z,67.24
2023-12-14T23:24:39.609Z,67.48
2023-12-14T23:27:07.234Z,67.28
2023-12-14T23:29:34.772Z,66.93
2023-12-14T23:32:02.469Z,66.99
2023-12-14T23:34:30.016Z,67.22
2023-12-14T23:36:57.560Z,67.68
2023-12-14T23:39:25.137Z,66.95
2023-12-14T23:42:11.245Z,67.25
2023-12-14T23:44:39.905Z,67.19
2023-12-14T23:47:07.787Z,66.93
2023-12-14T23:49:35.354Z,66.90
2023-12-14T23:52:02.978Z,67.41
2023-12-14T23:54:30.692Z,67.54
2023-12-14T23:56:58.251Z,67.40
2023-12-14T23:59:25.866Z,67.22
